createdAt,value
2022-11-12T00:04:46.149Z,102828.38
2022-11-12T00:10:26.042Z,102816.38
2022-11-12T00:16:05.874Z,102823.22
2022-11-12T00:21:44.909Z,102826.66
2022-11-12T00:27:24.421Z,102827.53
2022-11-12T00:33:05.103Z,102837.84
2022-11-12T00:38:44.255Z,102829.28
2022-11-12T00:44:23.456Z,102847.31
2022-11-12T00:50:02.927Z,102840.44
2022-11-12T00:55:42.000Z,102844.75
2022-11-12T01:01:21.760Z,102835.28
2022-11-12T01:07:00.944Z,102834.44
2022-11-12T01:12:40.643Z,102844.72
2022-11-12T01:18:19.566Z,102845.59
2022-11-12T01:24:00.888Z,102848.19
2022-11-12T01:29:40.951Z,102841.28
2022-11-12T01:35:20.308Z,102855.91
2022-11-12T01:40:59.567Z,102857.66
2022-11-12T01:46:49.923Z,102849.91
2022-11-12T01:52:35.201Z,102851.63
2022-11-12T01:58:18.367Z,102849.88
2022-11-12T02:03:57.396Z,102858.47
2022-11-12T02:09:36.868Z,102869.63
2022-11-12T02:15:16.069Z,102867.94
2022-11-12T02:20:58.039Z,102853.34
2022-11-12T02:26:40.918Z,102887.72
2022-11-12T02:32:20.197Z,102880.84
2022-11-12T02:38:00.049Z,102886.84
2022-11-12T02:43:40.728Z,102877.41
2022-11-12T02:49:19.848Z,102894.59
2022-11-12T02:54:59.189Z,102898.88
2022-11-12T03:00:38.226Z,102884.28
2022-11-12T03:06:17.835Z,102900.59
2022-11-12T03:11:57.275Z,102881.69
2022-11-12T03:17:36.340Z,102890.28
2022-11-12T03:23:15.514Z,102898.03
2022-11-12T03:28:55.045Z,102889.44
2022-11-12T03:34:34.339Z,102886.88
2022-11-12T03:40:13.458Z,102892.88
2022-11-12T03:45:52.506Z,102895.47
2022-11-12T03:51:31.769Z,102894.59
2022-11-12T03:57:10.705Z,102882.59
2022-11-12T04:02:50.119Z,102898.06
2022-11-12T04:08:38.427Z,102886.00
2022-11-12T04:14:17.737Z,102886.00
2022-11-12T04:20:15.601Z,102893.72
2022-11-12T04:26:13.613Z,102897.97
2022-11-12T04:31:52.881Z,102903.13
2022-11-12T04:37:44.451Z,102895.41
2022-11-12T04:43:42.296Z,102904.81
2022-11-12T04:49:21.698Z,102896.22
2022-11-12T04:55:01.404Z,102873.00
2022-11-12T05:00:40.715Z,102925.34
2022-11-12T05:06:38.343Z,102905.66
2022-11-12T05:12:17.862Z,102895.34
2022-11-12T05:17:57.139Z,102923.72
2022-11-12T05:23:35.976Z,102916.00
2022-11-12T05:29:15.208Z,102923.75
2022-11-12T05:34:54.569Z,102918.59
2022-11-12T05:40:33.761Z,102929.75
2022-11-12T05:46:13.116Z,102940.94
2022-11-12T05:51:52.701Z,102935.78
2022-11-12T05:57:32.073Z,102927.16
2022-11-12T06:03:12.358Z,102954.66
2022-11-12T06:08:51.754Z,102952.94
2022-11-12T06:14:31.158Z,102957.22
2022-11-12T06:20:11.216Z,102981.31
2022-11-12T06:25:50.514Z,102967.53
2022-11-12T06:31:29.752Z,102988.13
2022-11-12T06:37:09.170Z,102988.97
2022-11-12T06:42:48.393Z,102974.31
2022-11-12T06:48:28.765Z,102993.16
2022-11-12T06:54:08.311Z,102984.59
2022-11-12T06:59:47.418Z,102991.47
2022-11-12T07:05:26.512Z,103001.78
2022-11-12T07:11:06.367Z,103000.91
2022-11-12T07:16:45.754Z,103002.59
2022-11-12T07:22:24.949Z,103007.72
2022-11-12T07:28:04.701Z,103013.81
2022-11-12T07:33:44.424Z,103002.63
2022-11-12T07:39:23.896Z,103026.63
2022-11-12T07:45:03.307Z,103006.00
2022-11-12T07:50:42.571Z,103010.25
2022-11-12T07:56:24.728Z,103020.56
2022-11-12T08:02:04.156Z,103022.31
2022-11-12T08:07:43.175Z,103022.34
2022-11-12T08:13:22.228Z,103045.63
2022-11-12T08:19:01.510Z,103044.94
2022-11-12T08:24:40.649Z,103055.28
2022-11-12T08:30:19.518Z,103063.06
2022-11-12T08:36:02.057Z,103054.50
2022-11-12T08:41:41.077Z,103071.72
2022-11-12T08:47:20.046Z,103072.56
2022-11-12T08:53:04.438Z,103066.56
2022-11-12T08:58:43.745Z,103085.47
2022-11-12T09:04:23.157Z,103086.34
2022-11-12T09:10:02.755Z,103083.78
2022-11-12T09:15:43.130Z,103105.38
2022-11-12T09:21:24.673Z,103088.19
2022-11-12T09:27:03.909Z,103099.44
2022-11-12T09:32:43.424Z,103121.81
2022-11-12T09:38:22.912Z,103103.72
2022-11-12T09:44:04.930Z,103104.59
2022-11-12T09:50:03.548Z,103129.53
2022-11-12T09:55:46.648Z,103124.34
2022-11-12T10:01:50.103Z,103119.16
2022-11-12T10:07:38.323Z,103137.22
2022-11-12T10:13:34.913Z,103117.44
2022-11-12T10:19:37.085Z,103138.00
2022-11-12T10:25:19.438Z,103152.50
2022-11-12T10:31:06.122Z,103146.41
2022-11-12T10:36:56.692Z,103157.50
2022-11-12T10:42:59.312Z,103154.06
2022-11-12T10:48:38.448Z,103162.66
2022-11-12T10:54:30.078Z,103174.63
2022-11-12T11:00:12.215Z,103155.63
2022-11-12T11:06:00.417Z,103147.88
2022-11-12T11:12:00.446Z,103159.16
2022-11-12T11:17:39.757Z,103151.44
2022-11-12T11:23:28.923Z,103152.31
2022-11-12T11:29:30.641Z,103153.19
2022-11-12T11:35:34.932Z,103148.81
2022-11-12T11:41:30.847Z,103147.91
2022-11-12T11:47:19.133Z,103144.53
2022-11-12T11:53:26.710Z,103147.06
2022-11-12T11:59:30.694Z,103136.75
2022-11-12T12:05:27.755Z,103142.72
2022-11-12T12:11:32.453Z,103130.81
2022-11-12T12:17:31.848Z,103135.09
2022-11-12T12:23:37.505Z,103138.53
2022-11-12T12:29:34.575Z,103141.84
2022-11-12T12:35:33.001Z,103139.22
2022-11-12T12:41:30.670Z,103144.28
2022-11-12T12:47:13.040Z,103135.56
2022-11-12T12:53:16.546Z,103133.66
2022-11-12T12:58:55.751Z,103127.56
2022-11-12T13:04:55.192Z,103131.75
2022-11-12T13:10:44.445Z,103138.53
2022-11-12T13:16:52.135Z,103139.41
2022-11-12T13:22:40.248Z,103151.25
2022-11-12T13:28:19.745Z,103151.22
2022-11-12T13:34:13.214Z,103154.56
2022-11-12T13:39:52.468Z,103151.13
2022-11-12T13:45:35.531Z,103140.81
2022-11-12T13:51:27.275Z,103141.75
2022-11-12T13:57:24.018Z,103139.09
2022-11-12T14:03:06.301Z,103141.50
2022-11-12T14:09:25.863Z,103145.72
2022-11-12T14:15:23.663Z,103130.19
2022-11-12T14:21:11.054Z,103137.72
2022-11-12T14:26:50.801Z,103127.34
2022-11-12T14:32:37.139Z,103122.97
2022-11-12T14:38:48.613Z,103121.34
2022-11-12T14:44:34.580Z,103111.03
2022-11-12T14:50:20.847Z,103117.06
2022-11-12T14:56:03.590Z,103122.97
2022-11-12T15:08:08.088Z,103106.44
2022-11-12T15:13:49.406Z,103110.56
2022-11-12T15:19:29.644Z,103109.59
2022-11-12T15:25:18.096Z,103100.22
2022-11-12T15:31:06.040Z,103094.25
2022-11-12T15:36:45.289Z,103088.22
2022-11-12T15:42:33.820Z,103094.25
2022-11-12T15:48:13.067Z,103086.53
2022-11-12T15:53:52.744Z,103084.75
2022-11-12T15:59:32.099Z,103083.00
2022-11-12T16:05:18.533Z,103074.41
2022-11-12T16:10:57.828Z,103059.06
2022-11-12T16:16:39.594Z,103057.31
2022-11-12T16:22:18.935Z,103060.72
2022-11-12T16:28:00.892Z,103063.19
2022-11-12T16:33:39.944Z,103053.69
2022-11-12T16:39:18.892Z,103050.28
2022-11-12T16:44:58.408Z,103045.16
2022-11-12T16:50:37.815Z,103041.69
2022-11-12T16:56:21.936Z,103038.22
2022-11-12T17:02:01.150Z,103039.03
2022-11-12T17:07:40.353Z,103031.19
2022-11-12T17:13:19.617Z,103035.38
2022-11-12T17:19:01.576Z,103037.03
2022-11-12T17:24:40.682Z,103033.38
2022-11-12T17:30:21.162Z,103004.88
2022-11-12T17:36:05.009Z,103012.34
2022-11-12T17:41:44.485Z,103012.13
2022-11-12T17:47:23.928Z,103015.38
2022-11-12T17:53:03.418Z,103026.31
2022-11-12T17:58:45.303Z,103021.09
2022-11-12T18:04:26.552Z,103008.19
2022-11-12T18:10:08.083Z,103026.06
2022-11-12T18:15:47.689Z,103026.88
2022-11-12T18:21:27.561Z,103037.13
2022-11-12T18:27:07.005Z,103045.78
2022-11-12T18:32:46.586Z,103040.63
2022-11-12T18:38:25.893Z,103039.69
2022-11-12T18:44:05.257Z,103036.13
2022-11-12T18:49:44.732Z,103034.31
2022-11-12T18:55:24.069Z,103045.22
2022-11-12T19:01:10.820Z,103048.53
2022-11-12T19:06:51.881Z,103051.94
2022-11-12T19:12:31.241Z,103047.72
2022-11-12T19:18:10.701Z,103059.84
2022-11-12T19:23:53.996Z,103053.97
2022-11-12T19:29:33.855Z,103066.81
2022-11-12T19:35:13.272Z,103057.38
2022-11-12T19:40:52.465Z,103042.69
2022-11-12T19:46:32.448Z,103049.44
2022-11-12T19:52:12.126Z,103044.38
2022-11-12T19:57:52.010Z,103045.22
2022-11-12T20:03:31.250Z,103030.63
2022-11-12T20:09:10.352Z,103033.13
2022-11-12T20:14:49.673Z,103034.72
2022-11-12T20:20:29.016Z,103039.69
2022-11-12T20:26:12.167Z,103036.19
2022-11-12T20:31:51.361Z,103042.91
2022-11-12T20:37:30.691Z,103066.72
2022-11-12T20:43:09.928Z,103064.84
2022-11-12T20:48:49.313Z,103062.97
2022-11-12T20:54:28.684Z,103070.47
2022-11-12T21:00:13.522Z,103062.63
2022-11-12T21:06:01.768Z,103043.59
2022-11-12T21:11:41.090Z,103049.38
2022-11-12T21:17:20.601Z,103048.38
2022-11-12T21:22:59.711Z,103056.00
2022-11-12T21:28:41.556Z,103038.84
2022-11-12T21:34:20.703Z,103054.16
2022-11-12T21:39:59.792Z,103052.34
2022-11-12T21:45:44.839Z,103054.16
2022-11-12T21:51:26.879Z,103039.97
2022-11-12T21:57:06.571Z,103035.94
2022-11-12T22:02:45.822Z,103031.84
2022-11-12T22:08:25.608Z,103042.25
2022-11-12T22:14:05.022Z,103039.00
2022-11-12T22:19:44.053Z,103033.19
2022-11-12T22:25:23.277Z,103028.03
2022-11-12T22:31:05.157Z,103028.88
2022-11-12T22:36:44.807Z,103028.00
2022-11-12T22:42:23.851Z,103023.84
2022-11-12T22:48:03.684Z,103027.25
2022-11-12T22:53:43.450Z,103023.09
2022-11-12T22:59:23.179Z,103022.31
2022-11-12T23:05:03.435Z,103021.50
2022-11-12T23:10:45.790Z,103011.22
2022-11-12T23:16:30.010Z,103004.19
2022-11-12T23:22:09.296Z,102995.50
2022-11-12T23:27:48.374Z,103003.81
2022-11-12T23:33:27.515Z,103004.31
2022-11-12T23:39:06.844Z,103014.28
2022-11-12T23:44:46.457Z,103019.63
2022-11-12T23:50:25.761Z,103015.38
2022-11-12T23:56:06.957Z,102998.09
